createdAt,value
2019-01-22T00:04:10.402Z,62.20
2019-01-22T00:09:13.999Z,62.50
2019-01-22T00:14:17.608Z,63.00
2019-01-22T00:19:21.230Z,62.30
2019-01-22T00:24:24.844Z,62.50
2019-01-22T00:29:28.544Z,63.10
2019-01-22T00:34:32.142Z,63.60
2019-01-22T00:39:36.169Z,63.60
2019-01-22T00:44:39.775Z,64.50
2019-01-22T00:49:43.455Z,63.90
2019-01-22T00:54:47.327Z,63.40
2019-01-22T00:59:50.923Z,63.20
2019-01-22T01:04:54.610Z,63.10
2019-01-22T01:09:58.223Z,63.80
2019-01-22T01:15:02.126Z,64.50
2019-01-22T01:20:14.371Z,64.70
2019-01-22T01:25:20.409Z,64.40
2019-01-22T01:30:25.053Z,65.30
2019-01-22T01:35:28.951Z,65.50
2019-01-22T01:40:32.578Z,66.00
2019-01-22T01:45:36.198Z,66.70
2019-01-22T01:50:39.799Z,67.20
2019-01-22T01:55:43.407Z,66.80
2019-01-22T02:00:47.032Z,66.50
2019-01-22T02:05:50.655Z,67.40
2019-01-22T02:10:54.278Z,67.60
2019-01-22T02:16:03.926Z,67.40
2019-01-22T02:21:31.731Z,67.60
2019-01-22T02:26:38.420Z,67.50
2019-01-22T02:32:02.620Z,67.70
2019-01-22T02:37:30.436Z,67.60
2019-01-22T02:42:54.778Z,67.80
2019-01-22T02:48:12.726Z,68.40
2019-01-22T02:53:21.838Z,68.10
2019-01-22T02:58:49.159Z,68.70
2019-01-22T03:04:15.567Z,69.80
2019-01-22T03:09:25.224Z,68.90
2019-01-22T03:15:05.338Z,69.20
2019-01-22T03:20:24.243Z,69.40
2019-01-22T03:25:33.768Z,69.40
2019-01-22T03:30:46.409Z,69.20
2019-01-22T03:36:01.843Z,69.50
2019-01-22T03:41:23.759Z,69.50
2019-01-22T03:46:46.532Z,69.00
2019-01-22T03:51:53.210Z,69.50
2019-01-22T03:57:08.911Z,69.00
2019-01-22T04:02:12.658Z,69.10
2019-01-22T04:07:16.390Z,68.70
2019-01-22T04:12:20.450Z,68.70
2019-01-22T04:17:25.598Z,68.40
2019-01-22T04:22:32.221Z,68.00
2019-01-22T04:27:41.791Z,68.20
2019-01-22T04:33:11.346Z,68.70
2019-01-22T04:38:20.589Z,69.00
2019-01-22T04:43:43.548Z,68.00
2019-01-22T04:49:06.741Z,67.60
2019-01-22T04:54:25.322Z,67.30
2019-01-22T04:59:51.442Z,68.00
2019-01-22T05:04:58.122Z,68.30
2019-01-22T05:10:16.555Z,68.10
2019-01-22T05:15:49.028Z,67.80
2019-01-22T05:21:22.720Z,67.20
2019-01-22T05:26:56.587Z,67.50
2019-01-22T05:32:17.580Z,67.70
2019-01-22T05:37:26.969Z,67.80
2019-01-22T05:42:52.004Z,68.10
2019-01-22T05:48:01.366Z,68.60
2019-01-22T05:53:22.955Z,69.00
2019-01-22T05:58:52.174Z,68.50
2019-01-22T06:04:16.555Z,69.60
2019-01-22T06:09:35.116Z,68.60
2019-01-22T06:14:56.623Z,69.40
2019-01-22T06:20:15.123Z,69.30
2019-01-22T06:25:33.861Z,68.50
2019-01-22T06:30:59.904Z,68.70
2019-01-22T06:36:12.473Z,69.10
2019-01-22T06:41:28.155Z,68.60
2019-01-22T06:46:37.813Z,68.60
2019-01-22T06:51:47.310Z,68.90
2019-01-22T06:57:12.090Z,68.40
2019-01-22T07:02:30.654Z,68.80
2019-01-22T07:08:03.059Z,69.30
2019-01-22T07:13:36.891Z,69.70
2019-01-22T07:18:49.239Z,69.20
2019-01-22T07:23:55.914Z,69.00
2019-01-22T07:29:25.054Z,68.90
2019-01-22T07:34:37.584Z,68.40
2019-01-22T07:39:53.539Z,67.50
2019-01-22T07:45:02.847Z,68.30
2019-01-22T07:50:15.572Z,68.10
2019-01-22T07:55:28.200Z,67.80
2019-01-22T08:00:40.593Z,66.90
2019-01-22T08:05:48.918Z,66.60
2019-01-22T08:11:12.154Z,66.30
2019-01-22T08:16:30.137Z,66.60
2019-01-22T08:21:45.790Z,66.40
2019-01-22T08:27:13.882Z,65.60
2019-01-22T08:32:55.470Z,64.30
2019-01-22T08:38:23.487Z,64.20
2019-01-22T08:43:38.776Z,64.40
2019-01-22T08:49:00.662Z,64.40
2019-01-22T08:54:13.079Z,64.40
2019-01-22T08:59:25.707Z,63.80
2019-01-22T09:04:32.657Z,63.50
2019-01-22T09:09:51.199Z,63.30
2019-01-22T09:15:17.606Z,63.20
2019-01-22T09:20:30.067Z,62.80
2019-01-22T09:25:42.357Z,63.10
2019-01-22T09:30:55.009Z,61.90
2019-01-22T09:36:19.640Z,62.00
2019-01-22T09:41:23.532Z,61.10
2019-01-22T09:46:27.160Z,60.90
2019-01-22T09:51:30.829Z,59.90
2019-01-22T09:56:34.446Z,60.60
2019-01-22T10:01:38.090Z,60.10
2019-01-22T10:06:41.699Z,59.40
2019-01-22T10:11:45.318Z,58.60
2019-01-22T10:16:49.012Z,58.90
2019-01-22T10:21:52.695Z,59.80
2019-01-22T10:26:56.322Z,60.30
2019-01-22T10:31:59.950Z,61.10
2019-01-22T10:37:03.648Z,60.30
2019-01-22T10:42:07.589Z,60.00
2019-01-22T10:47:11.212Z,60.20
2019-01-22T10:52:14.833Z,60.20
2019-01-22T10:57:18.421Z,60.00
2019-01-22T11:02:22.221Z,59.00
2019-01-22T11:07:25.915Z,59.00
2019-01-22T11:12:29.523Z,59.30
2019-01-22T11:17:33.140Z,59.40
2019-01-22T11:22:38.362Z,59.40
2019-01-22T11:27:41.975Z,59.60
2019-01-22T11:32:45.605Z,59.40
2019-01-22T11:37:49.239Z,59.50
2019-01-22T11:42:52.899Z,59.90
2019-01-22T11:47:56.565Z,60.20
2019-01-22T11:53:00.247Z,59.40
2019-01-22T11:58:04.398Z,58.70
2019-01-22T12:03:08.287Z,57.70
2019-01-22T12:08:11.971Z,58.10
2019-01-22T12:13:15.656Z,58.10
2019-01-22T12:18:19.543Z,58.20
2019-01-22T12:23:23.244Z,57.60
2019-01-22T12:28:26.871Z,56.80
2019-01-22T12:33:30.485Z,57.10
2019-01-22T12:38:34.127Z,57.80
2019-01-22T12:43:37.762Z,57.70
2019-01-22T12:48:41.376Z,57.20
2019-01-22T12:53:45.900Z,57.20
2019-01-22T12:58:49.483Z,57.00
2019-01-22T13:03:53.120Z,57.40
2019-01-22T13:08:56.731Z,57.20
2019-01-22T13:14:00.365Z,57.00
2019-01-22T13:19:04.371Z,56.30
2019-01-22T13:24:08.146Z,56.50
2019-01-22T13:29:11.767Z,56.10
2019-01-22T13:34:15.389Z,55.40
2019-01-22T13:39:19.081Z,55.90
2019-01-22T13:44:23.003Z,55.70
2019-01-22T13:49:26.607Z,56.80
2019-01-22T13:54:30.251Z,57.10
2019-01-22T13:59:33.893Z,57.50
2019-01-22T14:04:37.536Z,57.40
2019-01-22T14:09:41.147Z,57.50
2019-01-22T14:14:44.767Z,56.60
2019-01-22T14:19:48.411Z,56.10
2019-01-22T14:24:52.039Z,55.10
2019-01-22T14:29:55.656Z,55.40
2019-01-22T14:34:59.351Z,54.60
2019-01-22T14:40:03.079Z,55.90
2019-01-22T14:45:10.199Z,55.90
2019-01-22T14:50:19.385Z,57.10
2019-01-22T14:55:22.986Z,57.90
2019-01-22T15:00:28.694Z,57.70
2019-01-22T15:05:32.485Z,57.10
2019-01-22T15:10:36.155Z,58.40
2019-01-22T15:15:39.774Z,58.30
2019-01-22T15:20:43.484Z,58.70
2019-01-22T15:25:48.263Z,57.80
2019-01-22T15:30:51.880Z,58.10
2019-01-22T15:35:55.489Z,58.20
2019-01-22T15:40:59.274Z,57.00
2019-01-22T15:46:02.923Z,56.90
2019-01-22T15:51:06.606Z,57.80
2019-01-22T15:56:10.302Z,58.20
2019-01-22T16:01:13.964Z,58.20
2019-01-22T16:06:17.874Z,58.80
2019-01-22T16:11:21.524Z,58.00
2019-01-22T16:16:25.302Z,58.00
2019-01-22T16:21:29.264Z,57.70
2019-01-22T16:26:33.200Z,58.30
2019-01-22T16:31:36.881Z,59.60
2019-01-22T16:36:40.511Z,60.30
2019-01-22T16:41:44.152Z,60.50
2019-01-22T16:46:48.093Z,59.70
2019-01-22T16:51:51.790Z,59.10
2019-01-22T16:57:00.467Z,59.20
2019-01-22T17:02:00.679Z,59.30
2019-01-22T17:07:04.391Z,59.40
2019-01-22T17:12:07.990Z,61.00
2019-01-22T17:17:11.586Z,61.00
2019-01-22T17:22:15.204Z,60.60
2019-01-22T17:27:18.889Z,60.50
2019-01-22T17:32:24.247Z,59.80
2019-01-22T17:37:27.904Z,59.60
2019-01-22T17:42:31.525Z,59.40
2019-01-22T17:47:35.147Z,58.70
2019-01-22T17:52:38.797Z,59.50
2019-01-22T17:57:42.605Z,59.60
2019-01-22T18:02:46.305Z,59.60
2019-01-22T18:07:49.994Z,59.70
2019-01-22T18:12:53.697Z,60.20
2019-01-22T18:17:57.529Z,60.20
2019-01-22T18:23:01.142Z,60.00
2019-01-22T18:28:05.096Z,59.90
2019-01-22T18:33:08.741Z,60.20
2019-01-22T18:38:12.411Z,61.50
2019-01-22T18:43:16.124Z,60.90
2019-01-22T18:48:19.778Z,61.40
2019-01-22T18:53:23.427Z,60.80
2019-01-22T18:58:27.099Z,61.20
2019-01-22T19:03:30.726Z,60.70
2019-01-22T19:08:34.378Z,61.30
2019-01-22T19:13:37.975Z,61.50
2019-01-22T19:18:41.651Z,62.40
2019-01-22T19:23:45.304Z,62.70
2019-01-22T19:28:49.284Z,63.30
2019-01-22T19:33:52.912Z,63.10
2019-01-22T19:38:56.526Z,62.50
2019-01-22T19:44:00.176Z,62.50
2019-01-22T19:49:03.863Z,62.00
2019-01-22T19:54:07.534Z,62.40
2019-01-22T19:59:11.187Z,62.90
2019-01-22T20:04:14.838Z,62.40
2019-01-22T20:09:25.046Z,63.10
2019-01-22T20:14:28.659Z,61.90
2019-01-22T20:19:32.311Z,62.70
2019-01-22T20:24:35.929Z,62.50
2019-01-22T20:29:39.537Z,62.60
2019-01-22T20:34:43.193Z,62.30
2019-01-22T20:39:46.855Z,63.20
2019-01-22T20:44:50.552Z,62.70
2019-01-22T20:49:54.156Z,63.00
2019-01-22T20:54:57.743Z,62.80
2019-01-22T21:00:01.370Z,63.40
2019-01-22T21:05:08.062Z,63.10
2019-01-22T21:10:26.582Z,62.70
2019-01-22T21:15:30.375Z,61.90
2019-01-22T21:20:34.167Z,61.90
2019-01-22T21:25:37.819Z,62.80
2019-01-22T21:30:41.492Z,62.20
2019-01-22T21:35:45.172Z,62.50
2019-01-22T21:40:48.770Z,62.50
2019-01-22T21:45:52.359Z,62.10
2019-01-22T21:50:56.342Z,61.40
2019-01-22T21:55:59.985Z,61.30
2019-01-22T22:01:03.674Z,60.70
2019-01-22T22:06:07.323Z,60.50
2019-01-22T22:11:11.345Z,59.70
2019-01-22T22:16:14.968Z,60.30
2019-01-22T22:21:18.578Z,60.40
2019-01-22T22:26:22.188Z,60.30
2019-01-22T22:31:25.814Z,60.20
2019-01-22T22:36:29.425Z,60.50
2019-01-22T22:41:33.042Z,60.70
2019-01-22T22:46:36.654Z,61.50
2019-01-22T22:51:40.446Z,61.60
2019-01-22T22:56:44.071Z,61.50
2019-01-22T23:01:47.837Z,61.00
2019-01-22T23:06:51.495Z,61.60
2019-01-22T23:11:55.097Z,61.90
2019-01-22T23:16:58.692Z,62.60
2019-01-22T23:22:02.374Z,63.80
2019-01-22T23:27:05.965Z,63.90
2019-01-22T23:32:09.638Z,63.60
2019-01-22T23:37:13.260Z,63.00
2019-01-22T23:42:16.860Z,62.20
2019-01-22T23:47:20.469Z,62.00
2019-01-22T23:52:24.066Z,61.20
2019-01-22T23:57:27.657Z,61.00
